createdAt,value
2023-11-23T00:00:00.931Z,102009.00
2023-11-23T00:02:06.607Z,102021.97
2023-11-23T00:04:08.846Z,102007.28
2023-11-23T00:06:10.733Z,102008.13
2023-11-23T00:08:13.337Z,101996.94
2023-11-23T00:10:15.554Z,101995.19
2023-11-23T00:12:17.357Z,101994.31
2023-11-23T00:14:19.096Z,101987.41
2023-11-23T00:16:20.813Z,101988.28
2023-11-23T00:18:22.637Z,101983.97
2023-11-23T00:20:24.571Z,101985.69
2023-11-23T00:22:27.537Z,101990.88
2023-11-23T00:24:29.498Z,101977.91
2023-11-23T00:26:31.242Z,101983.09
2023-11-23T00:28:32.956Z,101984.81
2023-11-23T00:30:34.683Z,101969.25
2023-11-23T00:32:36.662Z,101964.06
2023-11-23T00:34:38.468Z,101964.94
2023-11-23T00:36:40.319Z,101951.97
2023-11-23T00:38:44.652Z,101949.41
2023-11-23T00:40:46.362Z,101945.94
2023-11-23T00:42:48.098Z,101952.84
2023-11-23T00:44:49.871Z,101946.78
2023-11-23T00:46:51.732Z,101950.25
2023-11-23T00:48:55.011Z,101949.38
2023-11-23T00:50:56.761Z,101950.25
2023-11-23T00:52:58.498Z,101951.09
2023-11-23T00:55:00.648Z,101936.41
2023-11-23T00:57:02.368Z,101945.03
2023-11-23T00:59:04.969Z,101938.13
2023-11-23T01:01:06.877Z,101929.53
2023-11-23T01:03:08.866Z,101928.66
2023-11-23T01:05:16.583Z,101939.03
2023-11-23T01:07:18.649Z,101933.81
2023-11-23T01:09:20.380Z,101936.41
2023-11-23T01:11:22.075Z,101931.22
2023-11-23T01:13:23.817Z,101926.03
2023-11-23T01:15:25.628Z,101925.16
2023-11-23T01:17:27.352Z,101928.59
2023-11-23T01:19:29.050Z,101924.28
2023-11-23T01:21:30.896Z,101913.03
2023-11-23T01:23:32.635Z,101913.00
2023-11-23T01:25:34.390Z,101907.84
2023-11-23T01:27:36.888Z,101900.91
2023-11-23T01:29:38.607Z,101902.63
2023-11-23T01:31:40.340Z,101893.97
2023-11-23T01:33:42.217Z,101893.97
2023-11-23T01:35:44.024Z,101901.75
2023-11-23T01:37:45.754Z,101895.69
2023-11-23T01:39:47.472Z,101894.81
2023-11-23T01:41:49.330Z,101896.53
2023-11-23T01:43:51.133Z,101911.25
2023-11-23T01:45:52.887Z,101909.50
2023-11-23T01:47:55.043Z,101899.97
2023-11-23T01:49:58.925Z,101899.09
2023-11-23T01:52:00.703Z,101906.00
2023-11-23T01:54:02.621Z,101897.34
2023-11-23T01:56:04.857Z,101893.88
2023-11-23T01:58:10.073Z,101901.66
2023-11-23T02:00:12.274Z,101902.50
2023-11-23T02:02:14.529Z,101908.53
2023-11-23T02:04:17.512Z,101905.94
2023-11-23T02:06:21.230Z,101905.03
2023-11-23T02:08:23.147Z,101895.50
2023-11-23T02:10:24.960Z,101898.09
2023-11-23T02:12:27.975Z,101903.25
2023-11-23T02:14:32.475Z,101889.41
2023-11-23T02:16:35.735Z,101891.97
2023-11-23T02:18:39.131Z,101880.75
2023-11-23T02:20:43.060Z,101877.25
2023-11-23T02:22:44.773Z,101885.00
2023-11-23T02:24:46.635Z,101885.00
2023-11-23T02:26:48.536Z,101874.59
2023-11-23T02:28:50.326Z,101885.00
2023-11-23T02:30:52.199Z,101872.00
2023-11-23T02:32:55.131Z,101878.09
2023-11-23T02:34:56.905Z,101866.81
2023-11-23T02:36:58.660Z,101859.03
2023-11-23T02:39:01.212Z,101858.16
2023-11-23T02:41:02.947Z,101846.03
2023-11-23T02:43:06.789Z,101836.53
2023-11-23T02:45:09.242Z,101839.09
2023-11-23T02:47:11.040Z,101838.22
2023-11-23T02:49:12.764Z,101839.06
2023-11-23T02:51:16.038Z,101830.41
2023-11-23T02:53:31.451Z,101840.78
2023-11-23T02:55:33.464Z,101834.69
2023-11-23T02:57:35.896Z,101839.91
2023-11-23T02:59:37.656Z,101816.50
2023-11-23T03:01:39.420Z,101801.75
2023-11-23T03:03:41.302Z,101817.31
2023-11-23T03:05:43.255Z,101807.75
2023-11-23T03:07:44.991Z,101794.75
2023-11-23T03:09:47.058Z,101799.06
2023-11-23T03:11:48.768Z,101799.88
2023-11-23T03:13:50.508Z,101805.91
2023-11-23T03:15:52.372Z,101791.19
2023-11-23T03:17:54.301Z,101787.69
2023-11-23T03:19:56.505Z,101787.66
2023-11-23T03:21:59.099Z,101798.91
2023-11-23T03:24:01.004Z,101793.69
2023-11-23T03:26:03.129Z,101780.69
2023-11-23T03:28:07.782Z,101793.63
2023-11-23T03:30:10.892Z,101781.47
2023-11-23T03:32:12.666Z,101782.31
2023-11-23T03:34:14.408Z,101784.84
2023-11-23T03:36:16.186Z,101783.97
2023-11-23T03:38:18.616Z,101777.00
2023-11-23T03:40:20.366Z,101780.44
2023-11-23T03:42:22.309Z,101766.53
2023-11-23T03:44:24.105Z,101774.31
2023-11-23T03:46:25.881Z,101779.50
2023-11-23T03:48:27.729Z,101773.38
2023-11-23T03:50:29.490Z,101757.75
2023-11-23T03:52:31.185Z,101773.31
2023-11-23T03:54:32.985Z,101762.03
2023-11-23T03:56:38.988Z,101763.75
2023-11-23T03:58:40.850Z,101766.31
2023-11-23T04:00:42.637Z,101762.78
2023-11-23T04:02:45.131Z,101746.25
2023-11-23T04:04:46.898Z,101750.56
2023-11-23T04:06:48.630Z,101747.09
2023-11-23T04:08:50.367Z,101756.56
2023-11-23T04:10:52.628Z,101762.59
2023-11-23T04:12:54.350Z,101756.50
2023-11-23T04:14:57.512Z,101754.69
2023-11-23T04:16:59.307Z,101743.41
2023-11-23T04:19:01.064Z,101745.06
2023-11-23T04:21:02.869Z,101751.09
2023-11-23T04:23:04.642Z,101747.56
2023-11-23T04:25:06.922Z,101742.38
2023-11-23T04:27:10.397Z,101739.72
2023-11-23T04:29:12.166Z,101744.03
2023-11-23T04:31:13.901Z,101751.78
2023-11-23T04:33:15.722Z,101743.97
2023-11-23T04:35:17.481Z,101748.31
2023-11-23T04:37:19.565Z,101749.09
2023-11-23T04:39:21.420Z,101743.84
2023-11-23T04:41:23.205Z,101749.84
2023-11-23T04:43:24.973Z,101741.13
2023-11-23T04:45:26.798Z,101732.44
2023-11-23T04:47:28.580Z,101735.84
2023-11-23T04:49:30.307Z,101724.53
2023-11-23T04:51:32.048Z,101730.59
2023-11-23T04:53:33.778Z,101734.91
2023-11-23T04:55:36.558Z,101731.38
2023-11-23T04:57:38.339Z,101729.53
2023-11-23T04:59:40.256Z,101722.50
2023-11-23T05:01:42.077Z,101725.06
2023-11-23T05:03:43.956Z,101715.44
2023-11-23T05:05:45.772Z,101711.94
2023-11-23T05:07:47.906Z,101704.91
2023-11-23T05:09:49.673Z,101703.16
2023-11-23T05:11:51.381Z,101702.25
2023-11-23T05:13:53.248Z,101703.91
2023-11-23T05:15:55.007Z,101686.50
2023-11-23T05:17:56.871Z,101689.91
2023-11-23T05:19:58.657Z,101701.97
2023-11-23T05:22:00.488Z,101696.72
2023-11-23T05:24:04.553Z,101692.28
2023-11-23T05:26:06.826Z,101681.84
2023-11-23T05:28:08.594Z,101677.53
2023-11-23T05:30:10.746Z,101673.13
2023-11-23T05:32:12.494Z,101675.69
2023-11-23T05:34:14.312Z,101675.63
2023-11-23T05:36:16.562Z,101672.13
2023-11-23T05:38:18.344Z,101675.53
2023-11-23T05:40:20.084Z,101669.38
2023-11-23T05:42:21.828Z,101678.91
2023-11-23T05:44:23.561Z,101679.78
2023-11-23T05:46:25.513Z,101676.28
2023-11-23T05:48:27.427Z,101678.00
2023-11-23T05:50:29.233Z,101678.84
2023-11-23T05:52:31.510Z,101670.97
2023-11-23T05:54:33.325Z,101677.03
2023-11-23T05:56:35.243Z,101675.25
2023-11-23T05:58:37.101Z,101669.97
2023-11-23T06:00:38.844Z,101663.84
2023-11-23T06:02:42.540Z,101662.91
2023-11-23T06:04:44.464Z,101665.50
2023-11-23T06:06:46.257Z,101671.53
2023-11-23T06:08:48.462Z,101668.06
2023-11-23T06:10:52.309Z,101661.88
2023-11-23T06:12:54.100Z,101660.06
2023-11-23T06:14:55.969Z,101660.91
2023-11-23T06:16:57.789Z,101660.03
2023-11-23T06:19:03.373Z,101653.84
2023-11-23T06:21:06.604Z,101664.22
2023-11-23T06:23:08.367Z,101659.00
2023-11-23T06:25:10.103Z,101666.81
2023-11-23T06:27:11.953Z,101657.19
2023-11-23T06:29:14.717Z,101657.09
2023-11-23T06:31:16.526Z,101661.47
2023-11-23T06:33:18.540Z,101653.63
2023-11-23T06:35:20.346Z,101654.53
2023-11-23T06:37:22.045Z,101650.22
2023-11-23T06:39:26.707Z,101655.44
2023-11-23T06:41:28.487Z,101663.22
2023-11-23T06:43:30.706Z,101654.50
2023-11-23T06:45:32.560Z,101655.34
2023-11-23T06:47:34.335Z,101651.88
2023-11-23T06:49:36.430Z,101651.94
2023-11-23T06:51:38.394Z,101644.16
2023-11-23T06:53:45.073Z,101647.66
2023-11-23T06:55:46.846Z,101627.72
2023-11-23T06:57:48.543Z,101639.88
2023-11-23T06:59:50.376Z,101640.75
2023-11-23T07:01:52.186Z,101625.16
2023-11-23T07:03:54.032Z,101623.41
2023-11-23T07:05:55.837Z,101626.00
2023-11-23T07:07:57.896Z,101617.28
2023-11-23T07:09:59.594Z,101620.75
2023-11-23T07:12:01.584Z,101619.00
2023-11-23T07:14:03.409Z,101616.41
2023-11-23T07:16:06.318Z,101603.38
2023-11-23T07:18:08.180Z,101599.88
2023-11-23T07:20:13.817Z,101606.81
2023-11-23T07:22:15.570Z,101598.09
2023-11-23T07:24:17.957Z,101598.88
2023-11-23T07:26:19.798Z,101592.72
2023-11-23T07:28:26.778Z,101585.78
2023-11-23T07:30:28.564Z,101593.56
2023-11-23T07:32:30.571Z,101588.38
2023-11-23T07:34:32.274Z,101595.31
2023-11-23T07:36:34.222Z,101584.88
2023-11-23T07:38:35.993Z,101583.06
2023-11-23T07:40:37.728Z,101587.38
2023-11-23T07:42:44.458Z,101603.81
2023-11-23T07:44:47.737Z,101585.44
2023-11-23T07:46:49.538Z,101586.28
2023-11-23T07:48:54.115Z,101580.22
2023-11-23T07:50:56.143Z,101571.47
2023-11-23T07:52:58.448Z,101571.41
2023-11-23T07:55:00.205Z,101571.34
2023-11-23T07:57:01.969Z,101586.97
2023-11-23T07:59:03.921Z,101583.38
2023-11-23T08:01:06.000Z,101570.25
2023-11-23T08:03:07.939Z,101558.06
2023-11-23T08:05:10.619Z,101560.66
2023-11-23T08:07:12.458Z,101565.78
2023-11-23T08:09:17.529Z,101558.78
2023-11-23T08:11:19.496Z,101551.75
2023-11-23T08:13:21.678Z,101556.03
2023-11-23T08:15:23.396Z,101542.06
2023-11-23T08:17:25.162Z,101542.03
2023-11-23T08:19:26.954Z,101535.91
2023-11-23T08:21:29.178Z,101541.06
2023-11-23T08:23:31.360Z,101527.03
2023-11-23T08:25:33.221Z,101529.63
2023-11-23T08:27:36.572Z,101522.53
2023-11-23T08:29:39.695Z,101516.25
2023-11-23T08:31:42.653Z,101499.59
2023-11-23T08:33:44.394Z,101498.59
2023-11-23T08:35:49.860Z,101517.59
2023-11-23T08:37:51.575Z,101519.31
2023-11-23T08:39:53.358Z,101534.00
2023-11-23T08:41:55.436Z,101528.69
2023-11-23T08:43:57.425Z,101533.03
2023-11-23T08:45:59.368Z,101520.72
2023-11-23T08:48:02.177Z,101519.78
2023-11-23T08:50:04.411Z,101512.72
2023-11-23T08:52:06.278Z,101513.50
2023-11-23T08:54:09.624Z,101501.28
2023-11-23T08:56:14.383Z,101489.91
2023-11-23T08:58:16.426Z,101501.22
2023-11-23T09:00:25.216Z,101485.56
2023-11-23T09:02:27.242Z,101484.56
2023-11-23T09:04:36.731Z,101481.91
2023-11-23T09:06:45.126Z,101479.22
2023-11-23T09:08:46.872Z,101470.47
2023-11-23T09:10:49.913Z,101464.34
2023-11-23T09:12:52.160Z,101457.31
2023-11-23T09:14:58.390Z,101448.56
2023-11-23T09:17:00.257Z,101442.44
2023-11-23T09:19:02.646Z,101437.97
2023-11-23T09:21:04.911Z,101438.72
2023-11-23T09:23:07.426Z,101429.13
2023-11-23T09:25:09.536Z,101433.44
2023-11-23T09:27:16.062Z,101428.22
2023-11-23T09:29:17.892Z,101427.34
2023-11-23T09:31:19.754Z,101426.41
2023-11-23T09:33:24.671Z,101440.28
2023-11-23T09:35:27.720Z,101446.34
2023-11-23T09:37:29.685Z,101446.34
2023-11-23T09:39:32.054Z,101448.00
2023-11-23T09:41:36.081Z,101441.03
2023-11-23T09:43:37.804Z,101443.56
2023-11-23T09:45:40.189Z,101445.28
2023-11-23T09:47:42.786Z,101437.41
2023-11-23T09:49:45.837Z,101444.34
2023-11-23T09:51:50.202Z,101446.00
2023-11-23T09:53:56.275Z,101432.03
2023-11-23T09:56:01.359Z,101428.41
2023-11-23T09:58:06.301Z,101429.19
2023-11-23T10:00:10.861Z,101434.41
2023-11-23T10:02:15.286Z,101419.41
2023-11-23T10:04:17.472Z,101416.78
2023-11-23T10:06:19.381Z,101415.78
2023-11-23T10:08:21.192Z,101418.31
2023-11-23T10:10:26.339Z,101413.91
2023-11-23T10:12:29.209Z,101409.44
2023-11-23T10:14:31.142Z,101418.09
2023-11-23T10:16:36.605Z,101405.91
2023-11-23T10:18:39.286Z,101404.06
2023-11-23T10:20:48.105Z,101401.50
2023-11-23T10:22:50.876Z,101396.16
2023-11-23T10:24:52.854Z,101384.72
2023-11-23T10:26:55.146Z,101376.78
2023-11-23T10:28:57.047Z,101371.47
2023-11-23T10:31:03.884Z,101372.28
2023-11-23T10:33:06.802Z,101354.75
2023-11-23T10:35:11.159Z,101357.34
2023-11-23T10:37:15.574Z,101348.56
2023-11-23T10:39:20.383Z,101336.34
2023-11-23T10:41:22.845Z,101335.41
2023-11-23T10:43:26.834Z,101339.72
2023-11-23T10:45:29.675Z,101333.53
2023-11-23T10:47:33.599Z,101332.53
2023-11-23T10:49:36.062Z,101331.66
2023-11-23T10:51:38.862Z,101321.22
2023-11-23T10:53:43.308Z,101320.28
2023-11-23T10:55:45.439Z,101327.19
2023-11-23T10:57:55.900Z,101322.75
2023-11-23T10:59:57.942Z,101319.22
2023-11-23T11:02:00.162Z,101314.72
2023-11-23T11:04:02.257Z,101298.13
2023-11-23T11:06:12.290Z,101327.66
2023-11-23T11:08:22.322Z,101318.94
2023-11-23T11:10:24.164Z,101311.94
2023-11-23T11:12:36.841Z,101307.56
2023-11-23T11:14:41.161Z,101297.03
2023-11-23T11:16:43.380Z,101296.81
2023-11-23T11:18:55.589Z,101293.22
2023-11-23T11:21:15.009Z,101287.13
2023-11-23T11:23:16.757Z,101281.97
2023-11-23T11:25:18.607Z,101292.25
2023-11-23T11:27:20.505Z,101289.56
2023-11-23T11:29:22.559Z,101282.53
2023-11-23T11:31:36.715Z,101293.75
2023-11-23T11:33:42.041Z,101286.78
2023-11-23T11:35:48.782Z,101269.25
2023-11-23T11:37:51.962Z,101261.44
2023-11-23T11:39:53.909Z,101260.59
2023-11-23T11:42:01.152Z,101251.84
2023-11-23T11:44:05.443Z,101266.69
2023-11-23T11:46:08.374Z,101249.16
2023-11-23T11:48:10.913Z,101232.63
2023-11-23T11:50:14.303Z,101218.69
2023-11-23T11:52:16.537Z,101229.03
2023-11-23T11:54:23.324Z,101211.56
2023-11-23T11:56:25.093Z,101196.66
2023-11-23T11:58:28.193Z,101187.94
2023-11-23T12:00:34.997Z,101203.41
2023-11-23T12:02:36.908Z,101192.16
2023-11-23T12:04:40.008Z,101184.22
2023-11-23T12:06:41.956Z,101176.44
2023-11-23T12:08:44.456Z,101176.28
2023-11-23T12:10:46.480Z,101176.28
2023-11-23T12:12:49.148Z,101178.97
2023-11-23T12:14:51.142Z,101174.59
2023-11-23T12:16:54.194Z,101168.44
2023-11-23T12:18:56.568Z,101176.28
2023-11-23T12:20:59.321Z,101175.31
2023-11-23T12:23:04.470Z,101180.63
2023-11-23T12:25:07.165Z,101182.34
2023-11-23T12:27:08.955Z,101180.63
2023-11-23T12:29:10.714Z,101168.31
2023-11-23T12:31:14.091Z,101163.09
2023-11-23T12:33:16.206Z,101158.84
2023-11-23T12:35:18.017Z,101176.38
2023-11-23T12:37:20.684Z,101180.63
2023-11-23T12:39:22.522Z,101181.53
2023-11-23T12:41:24.367Z,101191.97
2023-11-23T12:43:26.453Z,101170.09
2023-11-23T12:45:28.683Z,101171.94
2023-11-23T12:47:31.604Z,101167.53
2023-11-23T12:49:33.481Z,101176.25
2023-11-23T12:51:35.263Z,101162.31
2023-11-23T12:53:37.003Z,101166.69
2023-11-23T12:55:38.919Z,101156.22
2023-11-23T12:57:40.880Z,101168.41
2023-11-23T12:59:42.687Z,101163.16
2023-11-23T13:01:44.515Z,101146.59
2023-11-23T13:03:46.320Z,101148.38
2023-11-23T13:05:51.049Z,101145.84
2023-11-23T13:07:52.792Z,101152.13
2023-11-23T13:09:54.593Z,101148.13
2023-11-23T13:11:58.321Z,101126.75
2023-11-23T13:14:00.255Z,101129.69
2023-11-23T13:16:02.606Z,101115.94
2023-11-23T13:18:05.843Z,101102.94
2023-11-23T13:20:11.645Z,101087.22
2023-11-23T13:22:13.827Z,101099.28
2023-11-23T13:24:15.658Z,101087.69
2023-11-23T13:26:17.430Z,101101.72
2023-11-23T13:28:19.897Z,101085.28
2023-11-23T13:30:21.619Z,101085.28
2023-11-23T13:32:23.439Z,101079.97
2023-11-23T13:34:25.143Z,101078.34
2023-11-23T13:36:26.914Z,101077.53
2023-11-23T13:38:28.798Z,101074.16
2023-11-23T13:40:30.527Z,101071.72
2023-11-23T13:42:33.090Z,101062.28
2023-11-23T13:44:35.662Z,101078.28
2023-11-23T13:46:38.514Z,101060.09
2023-11-23T13:48:40.336Z,101058.56
2023-11-23T13:50:43.882Z,101059.53
2023-11-23T13:52:46.283Z,101064.19
2023-11-23T13:54:49.202Z,101063.38
2023-11-23T13:56:52.132Z,101060.00
2023-11-23T13:58:53.988Z,101058.50
2023-11-23T14:00:55.700Z,101068.22
2023-11-23T14:02:57.615Z,101063.91
2023-11-23T14:04:59.357Z,101061.41
2023-11-23T14:07:01.869Z,101061.50
2023-11-23T14:09:05.032Z,101056.47
2023-11-23T14:11:07.470Z,101051.25
2023-11-23T14:13:09.556Z,101064.41
2023-11-23T14:15:13.229Z,101041.84
2023-11-23T14:17:15.961Z,101036.78
2023-11-23T14:19:18.594Z,101032.41
2023-11-23T14:21:20.560Z,101026.31
2023-11-23T14:23:22.519Z,101037.78
2023-11-23T14:25:24.228Z,101023.81
2023-11-23T14:27:29.396Z,101027.34
2023-11-23T14:29:33.747Z,101017.81
2023-11-23T14:31:35.520Z,101011.66
2023-11-23T14:33:37.259Z,101016.16
2023-11-23T14:35:39.309Z,101009.22
2023-11-23T14:37:42.107Z,101017.06
2023-11-23T14:39:46.917Z,101020.53
2023-11-23T14:41:48.708Z,101011.94
2023-11-23T14:43:50.916Z,101009.34
2023-11-23T14:45:52.758Z,101008.56
2023-11-23T14:47:54.872Z,101005.94
2023-11-23T14:49:56.629Z,101003.38
2023-11-23T14:51:58.388Z,101003.38
2023-11-23T14:54:09.994Z,100993.06
2023-11-23T14:56:14.988Z,100985.25
2023-11-23T14:58:17.451Z,100980.94
2023-11-23T15:00:19.797Z,100991.41
2023-11-23T15:02:23.190Z,100981.84
2023-11-23T15:04:25.328Z,100974.06
2023-11-23T15:06:27.677Z,100967.13
2023-11-23T15:08:29.418Z,100966.22
2023-11-23T15:10:32.603Z,100960.22
2023-11-23T15:12:34.471Z,100954.06
2023-11-23T15:14:36.353Z,100948.06
2023-11-23T15:16:38.124Z,100947.19
2023-11-23T15:18:40.143Z,100939.41
2023-11-23T15:20:41.968Z,100935.94
2023-11-23T15:22:44.039Z,100925.50
2023-11-23T15:24:46.056Z,100938.69
2023-11-23T15:26:48.551Z,100927.38
2023-11-23T15:28:50.645Z,100936.13
2023-11-23T15:30:52.436Z,100937.91
2023-11-23T15:32:58.100Z,100924.84
2023-11-23T15:35:00.152Z,100924.84
2023-11-23T15:37:02.199Z,100929.16
2023-11-23T15:39:08.200Z,100914.38
2023-11-23T15:41:10.238Z,100937.91
2023-11-23T15:43:12.729Z,100903.84
2023-11-23T15:45:16.274Z,100916.00
2023-11-23T15:47:18.107Z,100913.34
2023-11-23T15:49:19.920Z,100907.25
2023-11-23T15:51:21.971Z,100920.38
2023-11-23T15:53:23.902Z,100899.47
2023-11-23T15:55:26.249Z,100900.31
2023-11-23T15:57:28.764Z,100899.41
2023-11-23T15:59:30.768Z,100876.03
2023-11-23T16:01:32.865Z,100887.34
2023-11-23T16:03:34.694Z,100897.78
2023-11-23T16:05:36.476Z,100880.22
2023-11-23T16:07:38.507Z,100882.03
2023-11-23T16:09:40.292Z,100874.09
2023-11-23T16:11:45.663Z,100884.75
2023-11-23T16:13:47.500Z,100886.53
2023-11-23T16:15:51.989Z,100868.22
2023-11-23T16:17:54.002Z,100864.78
2023-11-23T16:19:55.998Z,100864.75
2023-11-23T16:21:57.738Z,100868.22
2023-11-23T16:23:59.649Z,100854.28
2023-11-23T16:26:01.351Z,100862.16
2023-11-23T16:28:04.816Z,100848.19
2023-11-23T16:30:07.740Z,100843.84
2023-11-23T16:32:10.270Z,100844.69
2023-11-23T16:34:14.417Z,100851.59
2023-11-23T16:36:30.176Z,100839.50
2023-11-23T16:38:38.588Z,100828.28
2023-11-23T16:40:40.289Z,100825.78
2023-11-23T16:42:43.452Z,100824.97
2023-11-23T16:44:45.448Z,100821.50
2023-11-23T16:46:47.289Z,100824.13
2023-11-23T16:48:49.105Z,100818.13
2023-11-23T16:50:50.986Z,100817.31
2023-11-23T16:52:52.725Z,100814.78
2023-11-23T16:54:54.514Z,100801.72
2023-11-23T16:56:56.296Z,100806.00
2023-11-23T16:58:58.254Z,100806.09
2023-11-23T17:01:03.179Z,100807.84
2023-11-23T17:03:06.536Z,100802.56
2023-11-23T17:05:10.513Z,100810.28
2023-11-23T17:07:13.801Z,100798.97
2023-11-23T17:09:15.835Z,100803.38
2023-11-23T17:11:18.699Z,100812.09
2023-11-23T17:13:22.687Z,100811.13
2023-11-23T17:15:24.419Z,100811.97
2023-11-23T17:17:26.180Z,100808.59
2023-11-23T17:19:27.976Z,100815.44
2023-11-23T17:21:31.169Z,100812.78
2023-11-23T17:23:35.511Z,100815.44
2023-11-23T17:25:40.547Z,100811.97
2023-11-23T17:27:48.585Z,100791.91
2023-11-23T17:29:50.854Z,100788.38
2023-11-23T17:31:58.554Z,100792.84
2023-11-23T17:34:00.838Z,100784.16
2023-11-23T17:36:03.000Z,100790.16
2023-11-23T17:38:07.027Z,100780.56
2023-11-23T17:40:09.726Z,100772.72
2023-11-23T17:42:13.028Z,100769.13
2023-11-23T17:44:15.825Z,100773.44
2023-11-23T17:46:17.761Z,100776.94
2023-11-23T17:48:20.232Z,100768.28
2023-11-23T17:50:22.265Z,100790.69
2023-11-23T17:52:24.007Z,100769.78
2023-11-23T17:54:29.821Z,100782.00
2023-11-23T17:56:34.386Z,100781.97
2023-11-23T17:58:40.670Z,100808.88
2023-11-23T18:00:42.545Z,100838.47
2023-11-23T18:02:44.794Z,100839.03
2023-11-23T18:04:46.784Z,100839.34
2023-11-23T18:06:48.856Z,100844.69
2023-11-23T18:08:52.897Z,100855.78
2023-11-23T18:10:55.010Z,100844.06
2023-11-23T18:12:56.765Z,100839.13
2023-11-23T18:14:58.519Z,100847.25
2023-11-23T18:17:00.316Z,100843.09
2023-11-23T18:19:02.700Z,100845.91
2023-11-23T18:21:04.852Z,100852.13
2023-11-23T18:23:07.130Z,100852.28
2023-11-23T18:25:09.337Z,100841.16
2023-11-23T18:27:13.422Z,100847.41
2023-11-23T18:29:15.678Z,100850.19
2023-11-23T18:31:19.964Z,100848.47
2023-11-23T18:33:22.825Z,100880.81
2023-11-23T18:35:24.898Z,100877.47
2023-11-23T18:37:26.614Z,100869.06
2023-11-23T18:39:28.797Z,100886.53
2023-11-23T18:41:30.631Z,100886.78
2023-11-23T18:43:32.739Z,100875.94
2023-11-23T18:45:34.984Z,100890.97
2023-11-23T18:47:37.060Z,100890.41
2023-11-23T18:49:38.820Z,100891.44
2023-11-23T18:51:40.559Z,100887.25
2023-11-23T18:53:42.649Z,100886.56
2023-11-23T18:55:44.917Z,100883.97
2023-11-23T18:57:46.869Z,100871.97
2023-11-23T18:59:50.250Z,100871.13
2023-11-23T19:01:52.962Z,100878.94
2023-11-23T19:03:55.793Z,100879.81
2023-11-23T19:05:59.646Z,100877.25
2023-11-23T19:08:01.494Z,100873.75
2023-11-23T19:10:03.822Z,100867.75
2023-11-23T19:12:05.901Z,100879.00
2023-11-23T19:14:07.756Z,100866.91
2023-11-23T19:16:10.153Z,100866.91
2023-11-23T19:18:12.482Z,100859.09
2023-11-23T19:20:14.593Z,100850.47
2023-11-23T19:22:17.456Z,100868.72
2023-11-23T19:24:19.433Z,100873.94
2023-11-23T19:26:21.487Z,100856.66
2023-11-23T19:28:23.348Z,100852.34
2023-11-23T19:30:27.230Z,100850.66
2023-11-23T19:32:29.602Z,100840.31
2023-11-23T19:34:31.631Z,100851.63
2023-11-23T19:36:35.252Z,100849.13
2023-11-23T19:38:37.647Z,100855.22
2023-11-23T19:40:39.760Z,100862.97
2023-11-23T19:42:44.688Z,100862.91
2023-11-23T19:44:47.752Z,100860.31
2023-11-23T19:46:49.708Z,100856.03
2023-11-23T19:48:51.867Z,100860.31
2023-11-23T19:50:53.990Z,100858.56
2023-11-23T19:52:57.809Z,100834.28
2023-11-23T19:55:00.775Z,100829.00
2023-11-23T19:57:02.495Z,100832.47
2023-11-23T19:59:06.056Z,100838.50
2023-11-23T20:01:08.562Z,100844.53
2023-11-23T20:03:10.365Z,100839.28
2023-11-23T20:05:12.352Z,100826.34
2023-11-23T20:07:14.122Z,100834.13
2023-11-23T20:09:18.874Z,100828.09
2023-11-23T20:11:20.593Z,100825.50
2023-11-23T20:13:22.476Z,100822.91
2023-11-23T20:15:24.234Z,100829.84
2023-11-23T20:17:27.128Z,100820.31
2023-11-23T20:19:32.007Z,100821.22
2023-11-23T20:21:34.651Z,100822.91
2023-11-23T20:23:36.485Z,100822.91
2023-11-23T20:25:38.179Z,100826.41
2023-11-23T20:27:40.184Z,100815.09
2023-11-23T20:29:42.007Z,100819.44
2023-11-23T20:31:44.526Z,100805.59
2023-11-23T20:33:46.465Z,100814.31
2023-11-23T20:35:48.742Z,100823.03
2023-11-23T20:37:53.498Z,100826.47
2023-11-23T20:39:56.937Z,100838.63
2023-11-23T20:41:59.372Z,100840.41
2023-11-23T20:44:01.113Z,100858.88
2023-11-23T20:46:05.240Z,100841.59
2023-11-23T20:48:07.244Z,100848.72
2023-11-23T20:50:10.052Z,100836.81
2023-11-23T20:52:13.552Z,100836.31
2023-11-23T20:54:15.473Z,100835.69
2023-11-23T20:56:17.538Z,100837.63
2023-11-23T20:58:21.460Z,100834.38
2023-11-23T21:00:24.334Z,100831.97
2023-11-23T21:02:26.498Z,100836.31
2023-11-23T21:04:31.164Z,100826.06
2023-11-23T21:06:35.275Z,100827.72
2023-11-23T21:08:37.437Z,100821.72
2023-11-23T21:10:39.557Z,100807.09
2023-11-23T21:12:42.097Z,100810.47
2023-11-23T21:14:46.244Z,100807.94
2023-11-23T21:16:48.053Z,100822.69
2023-11-23T21:18:49.941Z,100825.31
2023-11-23T21:20:51.696Z,100835.72
2023-11-23T21:22:53.468Z,100820.16
2023-11-23T21:24:55.225Z,100821.09
2023-11-23T21:26:58.292Z,100816.81
2023-11-23T21:29:00.510Z,100815.97
2023-11-23T21:31:03.428Z,100825.53
2023-11-23T21:33:06.731Z,100824.69
2023-11-23T21:35:11.742Z,100809.28
2023-11-23T21:37:13.815Z,100800.69
2023-11-23T21:39:15.663Z,100802.47
2023-11-23T21:41:17.747Z,100801.69
2023-11-23T21:43:19.476Z,100806.97
2023-11-23T21:45:21.497Z,100802.78
2023-11-23T21:47:23.273Z,100794.13
2023-11-23T21:49:25.008Z,100790.69
2023-11-23T21:51:30.268Z,100777.75
2023-11-23T21:53:33.777Z,100774.38
2023-11-23T21:55:38.781Z,100770.03
2023-11-23T21:57:41.412Z,100763.09
2023-11-23T21:59:43.226Z,100758.84
2023-11-23T22:01:45.028Z,100770.94
2023-11-23T22:03:50.570Z,100762.34
2023-11-23T22:05:53.288Z,100764.94
2023-11-23T22:07:55.083Z,100774.44
2023-11-23T22:09:57.053Z,100762.34
2023-11-23T22:11:59.044Z,100771.84
2023-11-23T22:14:00.750Z,100769.25
2023-11-23T22:16:02.491Z,100771.91
2023-11-23T22:18:04.472Z,100773.59
2023-11-23T22:20:09.758Z,100775.34
2023-11-23T22:22:12.003Z,100776.19
2023-11-23T22:24:16.201Z,100793.47
2023-11-23T22:26:18.256Z,100792.53
2023-11-23T22:28:20.363Z,100787.34
2023-11-23T22:30:22.308Z,100793.34
2023-11-23T22:32:27.501Z,100794.25
2023-11-23T22:34:29.763Z,100789.94
2023-11-23T22:36:31.848Z,100796.84
2023-11-23T22:38:33.863Z,100786.41
2023-11-23T22:40:36.522Z,100801.13
2023-11-23T22:42:39.747Z,100809.66
2023-11-23T22:44:42.075Z,100799.25
2023-11-23T22:46:44.199Z,100807.03
2023-11-23T22:48:51.898Z,100800.94
2023-11-23T22:50:53.812Z,100810.44
2023-11-23T22:52:58.687Z,100809.59
2023-11-23T22:55:01.370Z,100801.81
2023-11-23T22:57:04.584Z,100795.81
2023-11-23T22:59:06.378Z,100792.38
2023-11-23T23:01:08.340Z,100794.06
2023-11-23T23:03:10.237Z,100783.66
2023-11-23T23:05:12.285Z,100791.47
2023-11-23T23:07:14.043Z,100791.47
2023-11-23T23:09:17.109Z,100798.47
2023-11-23T23:11:22.299Z,100801.03
2023-11-23T23:13:28.722Z,100791.53
2023-11-23T23:15:30.832Z,100798.47
2023-11-23T23:17:35.766Z,100782.16
2023-11-23T23:19:40.215Z,100780.44